createdAt,value
2019-04-16T00:02:01.136Z,101504.58
2019-04-16T00:04:56.625Z,101508.18
2019-04-16T00:08:02.887Z,101513.40
2019-04-16T00:10:55.713Z,101511.34
2019-04-16T00:13:39.911Z,101505.50
2019-04-16T00:16:13.812Z,101501.63
2019-04-16T00:18:57.290Z,101498.63
2019-04-16T00:21:49.637Z,101498.50
2019-04-16T00:24:34.699Z,101494.30
2019-04-16T00:27:08.577Z,101499.62
2019-04-16T00:29:43.219Z,101494.87
2019-04-16T00:32:31.499Z,101492.17
2019-04-16T00:35:05.457Z,101491.63
2019-04-16T00:37:40.376Z,101489.96
2019-04-16T00:40:14.550Z,101502.78
2019-04-16T00:42:49.980Z,101485.77
2019-04-16T00:45:26.653Z,101480.36
2019-04-16T00:48:00.326Z,101479.92
2019-04-16T00:50:33.965Z,101479.05
2019-04-16T00:53:09.312Z,101476.41
2019-04-16T00:55:46.517Z,101475.73
2019-04-16T00:58:20.378Z,101472.69
2019-04-16T01:00:54.519Z,101474.13
2019-04-16T01:03:28.308Z,101472.45
2019-04-16T01:06:07.023Z,101472.35
2019-04-16T01:08:37.779Z,101470.31
2019-04-16T01:11:11.502Z,101472.66
2019-04-16T01:13:46.555Z,101470.41
2019-04-16T01:16:20.332Z,101474.16
2019-04-16T01:18:55.076Z,101466.48
2019-04-16T01:21:29.180Z,101471.53
2019-04-16T01:24:02.877Z,101470.54
2019-04-16T01:26:37.710Z,101470.54
2019-04-16T01:29:16.707Z,101468.42
2019-04-16T01:32:10.269Z,101474.05
2019-04-16T01:34:54.855Z,101470.23
2019-04-16T01:38:04.112Z,101467.64
2019-04-16T01:40:55.688Z,101475.06
2019-04-16T01:43:29.385Z,101483.20
2019-04-16T01:46:04.855Z,101486.71
2019-04-16T01:48:42.130Z,101484.59
2019-04-16T01:51:16.295Z,101484.17
2019-04-16T01:53:52.279Z,101486.41
2019-04-16T01:56:28.797Z,101481.75
2019-04-16T01:59:05.915Z,101493.77
2019-04-16T02:01:40.332Z,101486.39
2019-04-16T02:04:19.832Z,101487.69
2019-04-16T02:06:54.325Z,101485.64
2019-04-16T02:09:34.236Z,101495.38
2019-04-16T02:12:06.860Z,101492.06
2019-04-16T02:14:41.075Z,101489.90
2019-04-16T02:17:14.736Z,101483.84
2019-04-16T02:19:48.498Z,101487.73
2019-04-16T02:22:22.290Z,101489.38
2019-04-16T02:24:55.911Z,101489.02
2019-04-16T02:27:31.039Z,101487.70
2019-04-16T02:30:05.918Z,101492.96
2019-04-16T02:32:39.749Z,101492.58
2019-04-16T02:35:13.761Z,101484.77
2019-04-16T02:37:47.509Z,101489.92
2019-04-16T02:40:21.432Z,101492.14
2019-04-16T02:42:56.762Z,101484.89
2019-04-16T02:45:30.489Z,101479.41
2019-04-16T02:48:04.303Z,101482.02
2019-04-16T02:50:48.647Z,101477.26
2019-04-16T02:53:40.155Z,101480.69
2019-04-16T02:56:52.056Z,101475.20
2019-04-16T02:59:27.789Z,101473.11
2019-04-16T03:02:11.856Z,101477.41
2019-04-16T03:04:51.446Z,101478.25
2019-04-16T03:07:25.274Z,101472.62
2019-04-16T03:10:01.793Z,101473.50
2019-04-16T03:12:34.777Z,101478.21
2019-04-16T03:15:09.097Z,101465.84
2019-04-16T03:17:45.487Z,101469.27
2019-04-16T03:20:20.728Z,101460.31
2019-04-16T03:22:55.024Z,101461.16
2019-04-16T03:25:28.650Z,101462.88
2019-04-16T03:28:02.790Z,101458.22
2019-04-16T03:30:42.391Z,101459.09
2019-04-16T03:33:15.156Z,101455.65
2019-04-16T03:35:49.261Z,101450.98
2019-04-16T03:38:24.548Z,101451.42
2019-04-16T03:40:59.569Z,101448.45
2019-04-16T03:43:33.618Z,101445.02
2019-04-16T03:46:12.143Z,101454.41
2019-04-16T03:48:43.138Z,101445.02
2019-04-16T03:51:17.185Z,101444.16
2019-04-16T03:53:50.912Z,101438.22
2019-04-16T03:56:27.544Z,101439.91
2019-04-16T03:59:03.401Z,101437.81
2019-04-16T04:01:37.120Z,101436.94
2019-04-16T04:04:13.478Z,101440.33
2019-04-16T04:06:48.713Z,101434.79
2019-04-16T04:09:22.969Z,101440.36
2019-04-16T04:11:57.079Z,101430.55
2019-04-16T04:14:31.858Z,101432.69
2019-04-16T04:17:07.059Z,101430.11
2019-04-16T04:19:46.157Z,101426.70
2019-04-16T04:22:19.235Z,101425.45
2019-04-16T04:24:53.360Z,101427.55
2019-04-16T04:27:27.058Z,101427.58
2019-04-16T04:30:02.503Z,101431.41
2019-04-16T04:32:47.614Z,101426.28
2019-04-16T04:35:22.319Z,101427.14
2019-04-16T04:37:56.838Z,101428.43
2019-04-16T04:40:44.507Z,101439.49
2019-04-16T04:43:10.835Z,101434.39
2019-04-16T04:45:44.496Z,101427.98
2019-04-16T04:48:22.962Z,101432.69
2019-04-16T04:50:53.570Z,101427.98
2019-04-16T04:53:27.729Z,101425.86
2019-04-16T04:56:01.470Z,101426.72
2019-04-16T04:58:36.808Z,101433.52
2019-04-16T05:01:13.627Z,101436.08
2019-04-16T05:04:03.172Z,101436.87
2019-04-16T05:06:38.360Z,101425.44
2019-04-16T05:09:13.642Z,101425.74
2019-04-16T05:11:48.575Z,101416.11
2019-04-16T05:14:25.961Z,101419.13
2019-04-16T05:17:03.654Z,101419.05
2019-04-16T05:19:37.648Z,101419.94
2019-04-16T05:22:12.750Z,101416.94
2019-04-16T05:24:46.486Z,101431.20
2019-04-16T05:27:20.149Z,101425.66
2019-04-16T05:29:53.900Z,101429.09
2019-04-16T05:32:32.984Z,101422.64
2019-04-16T05:35:09.204Z,101421.42
2019-04-16T05:37:40.562Z,101420.91
2019-04-16T05:40:14.435Z,101421.25
2019-04-16T05:42:48.075Z,101426.60
2019-04-16T05:45:21.782Z,101422.38
2019-04-16T05:47:55.591Z,101427.16
2019-04-16T05:50:31.112Z,101422.72
2019-04-16T05:53:08.452Z,101423.59
2019-04-16T05:55:57.507Z,101418.55
2019-04-16T05:58:31.602Z,101422.08
2019-04-16T06:01:23.947Z,101421.59
2019-04-16T06:03:58.963Z,101413.64
2019-04-16T06:06:32.666Z,101416.23
2019-04-16T06:09:12.205Z,101421.20
2019-04-16T06:11:45.560Z,101421.43
2019-04-16T06:14:27.059Z,101419.68
2019-04-16T06:17:31.913Z,101421.95
2019-04-16T06:20:22.489Z,101419.28
2019-04-16T06:23:05.913Z,101418.61
2019-04-16T06:25:45.057Z,101408.11
2019-04-16T06:28:36.225Z,101410.42
2019-04-16T06:31:29.809Z,101412.92
2019-04-16T06:34:26.071Z,101411.91
2019-04-16T06:37:26.603Z,101417.50
2019-04-16T06:40:19.518Z,101414.05
2019-04-16T06:42:58.018Z,101427.70
2019-04-16T06:45:56.780Z,101416.05
2019-04-16T06:48:35.524Z,101423.79
2019-04-16T06:51:31.666Z,101416.55
2019-04-16T06:54:25.323Z,101415.98
2019-04-16T06:57:16.663Z,101415.88
2019-04-16T07:00:02.333Z,101418.45
2019-04-16T07:03:02.396Z,101407.65
2019-04-16T07:05:37.207Z,101416.86
2019-04-16T07:08:19.884Z,101403.13
2019-04-16T07:10:56.086Z,101404.47
2019-04-16T07:13:29.784Z,101398.06
2019-04-16T07:16:03.488Z,101403.92
2019-04-16T07:18:38.682Z,101398.94
2019-04-16T07:21:14.499Z,101396.51
2019-04-16T07:23:49.402Z,101394.13
2019-04-16T07:26:23.293Z,101398.80
2019-04-16T07:29:13.400Z,101398.08
2019-04-16T07:31:54.279Z,101398.67
2019-04-16T07:34:44.685Z,101407.56
2019-04-16T07:37:37.297Z,101395.38
2019-04-16T07:40:23.846Z,101397.55
2019-04-16T07:43:15.997Z,101407.02
2019-04-16T07:46:01.541Z,101402.97
2019-04-16T07:48:47.687Z,101397.56
2019-04-16T07:51:27.535Z,101404.84
2019-04-16T07:54:28.257Z,101399.82
2019-04-16T07:57:01.958Z,101393.83
2019-04-16T07:59:37.332Z,101386.98
2019-04-16T08:02:11.636Z,101397.88
2019-04-16T08:04:45.496Z,101390.34
2019-04-16T08:07:20.477Z,101396.80
2019-04-16T08:09:54.784Z,101394.38
2019-04-16T08:12:30.650Z,101398.02
2019-04-16T08:15:13.243Z,101387.16
2019-04-16T08:17:40.817Z,101406.36
2019-04-16T08:20:19.774Z,101388.30
2019-04-16T08:22:53.141Z,101385.70
2019-04-16T08:25:33.592Z,101387.16
2019-04-16T08:28:07.709Z,101386.16
2019-04-16T08:30:41.825Z,101386.88
2019-04-16T08:33:16.568Z,101386.75
2019-04-16T08:35:51.898Z,101385.98
2019-04-16T08:38:26.959Z,101379.78
2019-04-16T08:41:00.983Z,101386.40
2019-04-16T08:43:34.653Z,101378.88
2019-04-16T08:46:11.558Z,101381.45
2019-04-16T08:48:48.894Z,101381.70
2019-04-16T08:51:30.115Z,101379.04
2019-04-16T08:53:58.173Z,101374.32
2019-04-16T08:56:33.105Z,101385.78
2019-04-16T08:59:10.039Z,101377.45
2019-04-16T09:01:44.329Z,101374.41
2019-04-16T09:04:18.007Z,101376.62
2019-04-16T09:06:51.821Z,101370.70
2019-04-16T09:09:36.835Z,101368.30
2019-04-16T09:12:12.638Z,101360.92
2019-04-16T09:14:48.668Z,101353.45
2019-04-16T09:17:35.093Z,101360.99
2019-04-16T09:20:15.044Z,101356.48
2019-04-16T09:22:49.750Z,101354.55
2019-04-16T09:25:45.681Z,101354.84
2019-04-16T09:28:26.296Z,101349.22
2019-04-16T09:31:09.125Z,101350.60
2019-04-16T09:33:57.327Z,101349.30
2019-04-16T09:37:01.290Z,101346.88
2019-04-16T09:40:15.914Z,101339.68
2019-04-16T09:42:38.373Z,101334.28
2019-04-16T09:45:15.012Z,101336.03
2019-04-16T09:47:50.595Z,101340.72
2019-04-16T09:50:25.324Z,101338.27
2019-04-16T09:53:01.767Z,101345.72
2019-04-16T09:55:34.447Z,101346.32
2019-04-16T09:58:17.088Z,101350.70
2019-04-16T10:01:05.320Z,101344.36
2019-04-16T10:03:41.177Z,101340.02
2019-04-16T10:06:15.148Z,101345.11
2019-04-16T10:08:51.660Z,101333.22
2019-04-16T10:11:25.467Z,101322.73
2019-04-16T10:13:59.356Z,101322.11
2019-04-16T10:16:34.247Z,101325.39
2019-04-16T10:19:09.076Z,101327.44
2019-04-16T10:21:42.951Z,101317.21
2019-04-16T10:24:38.964Z,101329.08
2019-04-16T10:27:17.373Z,101307.66
2019-04-16T10:29:51.090Z,101320.66
2019-04-16T10:32:27.251Z,101307.86
2019-04-16T10:35:01.571Z,101306.09
2019-04-16T10:37:36.190Z,101294.08
2019-04-16T10:40:22.212Z,101290.67
2019-04-16T10:43:43.959Z,101287.97
2019-04-16T10:46:22.391Z,101282.59
2019-04-16T10:49:12.178Z,101283.03
2019-04-16T10:52:03.906Z,101282.50
2019-04-16T10:54:45.745Z,101281.67
2019-04-16T10:57:44.277Z,101276.84
2019-04-16T11:00:44.730Z,101270.34
2019-04-16T11:03:28.647Z,101269.75
2019-04-16T11:06:11.326Z,101270.63
2019-04-16T11:08:47.102Z,101264.73
2019-04-16T11:11:24.053Z,101273.95
2019-04-16T11:13:59.975Z,101264.88
2019-04-16T11:16:35.959Z,101266.95
2019-04-16T11:19:11.470Z,101258.41
2019-04-16T11:21:45.286Z,101256.56
2019-04-16T11:24:20.611Z,101259.55
2019-04-16T11:26:54.351Z,101264.20
2019-04-16T11:29:27.995Z,101249.48
2019-04-16T11:32:03.833Z,101271.42
2019-04-16T11:34:37.546Z,101253.76
2019-04-16T11:37:12.382Z,101264.20
2019-04-16T11:39:46.260Z,101265.55
2019-04-16T11:42:20.188Z,101245.22
2019-04-16T11:44:55.005Z,101252.86
2019-04-16T11:47:33.859Z,101260.06
2019-04-16T11:50:05.618Z,101249.50
2019-04-16T11:52:40.032Z,101257.05
2019-04-16T11:55:14.144Z,101256.80
2019-04-16T11:57:48.364Z,101248.02
2019-04-16T12:00:45.020Z,101246.13
2019-04-16T12:03:28.296Z,101247.84
2019-04-16T12:06:27.804Z,101251.32
2019-04-16T12:09:28.911Z,101245.88
2019-04-16T12:12:24.253Z,101246.98
2019-04-16T12:15:31.429Z,101246.45
2019-04-16T12:18:32.114Z,101253.08
2019-04-16T12:21:20.550Z,101242.16
2019-04-16T12:24:03.977Z,101247.46
2019-04-16T12:27:05.709Z,101243.34
2019-04-16T12:30:12.483Z,101234.17
2019-04-16T12:33:07.485Z,101237.91
2019-04-16T12:36:05.799Z,101235.30
2019-04-16T12:38:44.193Z,101238.27
2019-04-16T12:41:35.483Z,101234.69
2019-04-16T12:44:45.719Z,101237.41
2019-04-16T12:47:58.871Z,101232.67
2019-04-16T12:50:48.019Z,101223.77
2019-04-16T12:53:54.064Z,101230.89
2019-04-16T12:56:45.564Z,101234.22
2019-04-16T12:59:30.026Z,101232.27
2019-04-16T13:02:35.824Z,101223.63
2019-04-16T13:05:20.861Z,101224.73
2019-04-16T13:08:15.146Z,101225.94
2019-04-16T13:11:11.805Z,101216.36
2019-04-16T13:14:05.132Z,101222.92
2019-04-16T13:17:08.131Z,101228.70
2019-04-16T13:19:50.815Z,101232.17
2019-04-16T13:22:28.606Z,101221.06
2019-04-16T13:25:13.269Z,101228.14
2019-04-16T13:27:47.856Z,101217.72
2019-04-16T13:30:23.184Z,101208.99
2019-04-16T13:32:57.000Z,101200.30
2019-04-16T13:35:31.875Z,101206.14
2019-04-16T13:38:09.262Z,101207.66
2019-04-16T13:40:41.612Z,101207.50
2019-04-16T13:43:20.330Z,101203.59
2019-04-16T13:45:57.948Z,101207.89
2019-04-16T13:48:37.489Z,101202.55
2019-04-16T13:51:18.686Z,101210.70
2019-04-16T13:54:09.712Z,101189.52
2019-04-16T13:56:51.592Z,101205.14
2019-04-16T14:00:03.066Z,101193.55
2019-04-16T14:02:43.042Z,101190.45
2019-04-16T14:05:16.786Z,101192.63
2019-04-16T14:07:50.594Z,101187.36
2019-04-16T14:10:27.483Z,101190.05
2019-04-16T14:13:01.365Z,101195.80
2019-04-16T14:15:40.267Z,101194.53
2019-04-16T14:18:13.633Z,101200.71
2019-04-16T14:20:48.960Z,101199.05
2019-04-16T14:23:24.560Z,101195.44
2019-04-16T14:25:58.674Z,101192.84
2019-04-16T14:28:40.152Z,101202.95
2019-04-16T14:31:10.824Z,101198.09
2019-04-16T14:34:03.902Z,101212.98
2019-04-16T14:36:37.662Z,101205.02
2019-04-16T14:39:31.867Z,101196.18
2019-04-16T14:42:07.372Z,101199.55
2019-04-16T14:44:45.708Z,101205.92
2019-04-16T14:47:19.723Z,101196.34
2019-04-16T14:49:54.526Z,101193.39
2019-04-16T14:52:28.168Z,101199.46
2019-04-16T14:55:12.694Z,101194.27
2019-04-16T14:58:23.361Z,101193.16
2019-04-16T15:01:28.561Z,101183.77
2019-04-16T15:04:19.579Z,101187.22
2019-04-16T15:07:16.109Z,101193.60
2019-04-16T15:10:11.403Z,101194.38
2019-04-16T15:13:04.002Z,101190.61
2019-04-16T15:15:40.982Z,101190.77
2019-04-16T15:18:36.633Z,101197.66
2019-04-16T15:21:43.918Z,101194.59
2019-04-16T15:24:35.825Z,101194.69
2019-04-16T15:27:31.597Z,101197.36
2019-04-16T15:30:30.818Z,101201.34
2019-04-16T15:33:30.941Z,101195.65
2019-04-16T15:36:10.563Z,101194.61
2019-04-16T15:39:08.950Z,101191.48
2019-04-16T15:42:01.785Z,101193.00
2019-04-16T15:44:42.957Z,101187.80
2019-04-16T15:47:42.860Z,101199.05
2019-04-16T15:50:35.209Z,101200.03
2019-04-16T15:53:10.708Z,101204.38
2019-04-16T15:55:51.907Z,101202.51
2019-04-16T15:58:38.197Z,101205.02
2019-04-16T16:01:21.847Z,101203.27
2019-04-16T16:04:15.118Z,101206.02
2019-04-16T16:06:58.620Z,101211.28
2019-04-16T16:09:51.252Z,101208.38
2019-04-16T16:12:29.031Z,101223.93
2019-04-16T16:15:07.528Z,101212.24
2019-04-16T16:17:40.358Z,101212.78
2019-04-16T16:20:15.636Z,101211.95
2019-04-16T16:22:50.733Z,101211.08
2019-04-16T16:25:24.693Z,101216.08
2019-04-16T16:28:00.290Z,101210.93
2019-04-16T16:30:34.558Z,101215.98
2019-04-16T16:33:08.282Z,101212.25
2019-04-16T16:35:57.110Z,101218.31
2019-04-16T16:38:20.787Z,101230.84
2019-04-16T16:40:54.966Z,101222.62
2019-04-16T16:43:28.631Z,101230.91
2019-04-16T16:46:24.172Z,101236.80
2019-04-16T16:48:59.517Z,101223.36
2019-04-16T16:51:35.907Z,101229.42
2019-04-16T16:54:23.197Z,101224.85
2019-04-16T16:57:08.138Z,101229.87
2019-04-16T16:59:59.525Z,101225.10
2019-04-16T17:02:56.853Z,101221.66
2019-04-16T17:05:33.311Z,101230.62
2019-04-16T17:08:08.863Z,101232.94
2019-04-16T17:10:44.545Z,101236.95
2019-04-16T17:13:21.013Z,101230.04
2019-04-16T17:15:53.764Z,101240.30
2019-04-16T17:18:27.576Z,101238.13
2019-04-16T17:21:02.884Z,101236.50
2019-04-16T17:23:40.977Z,101243.23
2019-04-16T17:26:16.775Z,101240.03
2019-04-16T17:28:50.663Z,101245.83
2019-04-16T17:31:24.765Z,101245.14
2019-04-16T17:34:00.606Z,101245.72
2019-04-16T17:36:36.702Z,101247.08
2019-04-16T17:39:12.762Z,101254.86
2019-04-16T17:41:59.473Z,101250.98
2019-04-16T17:44:57.916Z,101251.46
2019-04-16T17:47:49.827Z,101256.06
2019-04-16T17:50:39.704Z,101256.95
2019-04-16T17:53:25.506Z,101264.55
2019-04-16T17:56:35.721Z,101273.71
2019-04-16T17:59:12.800Z,101276.69
2019-04-16T18:02:04.723Z,101281.20
2019-04-16T18:04:59.864Z,101287.34
2019-04-16T18:08:03.093Z,101284.39
2019-04-16T18:10:58.713Z,101293.22
2019-04-16T18:14:05.095Z,101286.26
2019-04-16T18:16:50.083Z,101295.72
2019-04-16T18:19:48.123Z,101302.03
2019-04-16T18:22:45.019Z,101305.80
2019-04-16T18:25:55.633Z,101312.77
2019-04-16T18:28:26.911Z,101314.46
2019-04-16T18:31:23.540Z,101324.23
2019-04-16T18:34:08.812Z,101325.61
2019-04-16T18:36:58.896Z,101323.45
2019-04-16T18:39:50.506Z,101328.75
2019-04-16T18:42:40.790Z,101326.90
2019-04-16T18:45:42.939Z,101328.87
2019-04-16T18:48:23.435Z,101332.15
2019-04-16T18:51:00.291Z,101333.45
2019-04-16T18:53:33.548Z,101339.33
2019-04-16T18:56:07.242Z,101344.36
2019-04-16T18:58:41.799Z,101339.41
2019-04-16T19:01:24.914Z,101345.23
2019-04-16T19:03:59.009Z,101343.54
2019-04-16T19:06:34.395Z,101352.89
2019-04-16T19:09:10.092Z,101353.88
2019-04-16T19:11:45.085Z,101359.48
2019-04-16T19:14:19.259Z,101357.53
2019-04-16T19:16:53.709Z,101360.45
2019-04-16T19:19:30.444Z,101365.59
2019-04-16T19:22:04.529Z,101365.08
2019-04-16T19:24:38.393Z,101368.22
2019-04-16T19:27:12.212Z,101368.73
2019-04-16T19:29:46.169Z,101369.23
2019-04-16T19:32:21.368Z,101377.00
2019-04-16T19:35:08.823Z,101378.12
2019-04-16T19:37:36.740Z,101383.16
2019-04-16T19:40:11.380Z,101386.45
2019-04-16T19:42:46.731Z,101389.16
2019-04-16T19:45:25.985Z,101391.25
2019-04-16T19:48:02.123Z,101394.47
2019-04-16T19:50:37.300Z,101408.23
2019-04-16T19:53:14.922Z,101400.61
2019-04-16T19:55:48.914Z,101399.95
2019-04-16T19:58:25.983Z,101399.23
2019-04-16T20:01:00.497Z,101406.52
2019-04-16T20:03:35.593Z,101408.51
2019-04-16T20:06:11.484Z,101407.55
2019-04-16T20:08:45.550Z,101417.76
2019-04-16T20:11:21.965Z,101414.67
2019-04-16T20:14:01.471Z,101427.67
2019-04-16T20:16:36.916Z,101421.97
2019-04-16T20:19:11.711Z,101419.31
2019-04-16T20:21:47.010Z,101427.09
2019-04-16T20:24:21.145Z,101424.86
2019-04-16T20:26:55.629Z,101430.85
2019-04-16T20:29:29.662Z,101426.69
2019-04-16T20:32:04.922Z,101426.09
2019-04-16T20:34:42.404Z,101427.85
2019-04-16T20:37:14.946Z,101436.81
2019-04-16T20:39:50.020Z,101427.58
2019-04-16T20:42:23.941Z,101438.28
2019-04-16T20:44:58.432Z,101438.81
2019-04-16T20:47:32.300Z,101436.50
2019-04-16T20:50:07.565Z,101435.86
2019-04-16T20:52:41.618Z,101432.46
2019-04-16T20:55:16.737Z,101437.34
2019-04-16T20:57:55.231Z,101436.23
2019-04-16T21:00:30.629Z,101443.93
2019-04-16T21:03:04.822Z,101446.06
2019-04-16T21:05:38.882Z,101444.83
2019-04-16T21:08:12.725Z,101443.37
2019-04-16T21:10:46.829Z,101444.94
2019-04-16T21:13:22.040Z,101446.52
2019-04-16T21:15:57.319Z,101448.74
2019-04-16T21:18:31.452Z,101446.30
2019-04-16T21:21:05.255Z,101450.47
2019-04-16T21:23:40.722Z,101454.48
2019-04-16T21:26:16.525Z,101453.19
2019-04-16T21:29:06.939Z,101455.78
2019-04-16T21:31:44.669Z,101454.37
2019-04-16T21:34:40.596Z,101453.42
2019-04-16T21:37:23.292Z,101450.98
2019-04-16T21:39:59.218Z,101461.19
2019-04-16T21:42:34.836Z,101461.42
2019-04-16T21:45:10.108Z,101470.39
2019-04-16T21:47:45.362Z,101469.23
2019-04-16T21:50:20.145Z,101471.28
2019-04-16T21:52:56.570Z,101467.27
2019-04-16T21:55:32.755Z,101471.42
2019-04-16T21:58:07.640Z,101468.23
2019-04-16T22:01:18.911Z,101481.37
2019-04-16T22:04:06.863Z,101468.17
2019-04-16T22:06:42.291Z,101468.14
2019-04-16T22:09:15.990Z,101465.63
2019-04-16T22:11:49.741Z,101458.59
2019-04-16T22:14:23.687Z,101468.66
2019-04-16T22:16:59.938Z,101474.47
2019-04-16T22:19:37.149Z,101469.05
2019-04-16T22:22:11.679Z,101478.08
2019-04-16T22:24:46.985Z,101472.52
2019-04-16T22:27:20.814Z,101475.47
2019-04-16T22:29:55.068Z,101478.65
2019-04-16T22:32:30.908Z,101475.41
2019-04-16T22:35:04.302Z,101482.31
2019-04-16T22:37:39.765Z,101487.20
2019-04-16T22:40:28.020Z,101479.23
2019-04-16T22:43:28.594Z,101485.73
2019-04-16T22:46:08.948Z,101488.95
2019-04-16T22:48:58.393Z,101493.55
2019-04-16T22:51:32.226Z,101500.39
2019-04-16T22:54:05.991Z,101494.83
2019-04-16T22:56:51.716Z,101494.51
2019-04-16T22:59:27.877Z,101497.95
2019-04-16T23:02:02.563Z,101506.52
2019-04-16T23:04:38.765Z,101506.56
2019-04-16T23:07:13.012Z,101504.23
2019-04-16T23:09:48.674Z,101503.72
2019-04-16T23:12:28.143Z,101495.63
2019-04-16T23:15:05.560Z,101503.24
2019-04-16T23:17:42.921Z,101499.61
2019-04-16T23:20:29.322Z,101505.58
2019-04-16T23:22:57.136Z,101510.86
2019-04-16T23:25:32.867Z,101508.84
2019-04-16T23:28:10.646Z,101511.23
2019-04-16T23:30:44.475Z,101515.67
2019-04-16T23:33:21.060Z,101515.16
2019-04-16T23:35:55.465Z,101509.25
2019-04-16T23:38:32.226Z,101510.66
2019-04-16T23:41:06.653Z,101516.52
2019-04-16T23:43:54.896Z,101520.44
2019-04-16T23:47:09.519Z,101517.63
2019-04-16T23:50:08.847Z,101518.47
2019-04-16T23:52:47.772Z,101515.41
2019-04-16T23:55:39.486Z,101515.45
2019-04-16T23:58:20.953Z,101517.04
